sensor_id;sensor_type;location;lat;lon;timestamp;pressure;altitude;pressure_sealevel;temperature;humidity
72409;BME280;60402;48.082;11.628;2023-03-11T00:00:23;94002.56;;;2.62;70.16
72409;BME280;60402;48.082;11.628;2023-03-11T00:02:50;94023.31;;;2.61;70.36
72409;BME280;60402;48.082;11.628;2023-03-11T00:05:22;94003.72;;;2.45;70.08
72409;BME280;60402;48.082;11.628;2023-03-11T00:07:47;94008.78;;;2.50;69.99
72409;BME280;60402;48.082;11.628;2023-03-11T00:10:18;94026.09;;;2.61;69.69
72409;BME280;60402;48.082;11.628;2023-03-11T00:12:44;94034.13;;;2.59;70.34
72409;BME280;60402;48.082;11.628;2023-03-11T00:15:11;94029.38;;;2.56;70.39
72409;BME280;60402;48.082;11.628;2023-03-11T00:17:36;94024.75;;;2.49;70.21
72409;BME280;60402;48.082;11.628;2023-03-11T00:20:03;94029.94;;;2.47;69.10
72409;BME280;60402;48.082;11.628;2023-03-11T00:22:29;94019.78;;;2.37;68.85
72409;BME280;60402;48.082;11.628;2023-03-11T00:24:54;94040.13;;;2.34;69.51
72409;BME280;60402;48.082;11.628;2023-03-11T00:27:19;94039.50;;;2.26;70.29
72409;BME280;60402;48.082;11.628;2023-03-11T00:29:45;94032.81;;;2.20;70.11
72409;BME280;60402;48.082;11.628;2023-03-11T00:32:10;94044.06;;;2.17;69.93
72409;BME280;60402;48.082;11.628;2023-03-11T00:34:36;94043.34;;;2.13;69.42
72409;BME280;60402;48.082;11.628;2023-03-11T00:37:01;94018.44;;;1.78;70.63
72409;BME280;60402;48.082;11.628;2023-03-11T00:39:27;94050.00;;;1.95;70.29
72409;BME280;60402;48.082;11.628;2023-03-11T00:41:52;94059.44;;;2.01;70.50
72409;BME280;60402;48.082;11.628;2023-03-11T00:44:17;94062.75;;;1.93;71.13
72409;BME280;60402;48.082;11.628;2023-03-11T00:46:43;94067.50;;;1.96;70.83
72409;BME280;60402;48.082;11.628;2023-03-11T00:49:08;94082.59;;;1.98;70.95
72409;BME280;60402;48.082;11.628;2023-03-11T00:51:33;94051.78;;;1.82;70.75
72409;BME280;60402;48.082;11.628;2023-03-11T00:53:59;94069.44;;;1.99;70.08
72409;BME280;60402;48.082;11.628;2023-03-11T00:56:25;94076.34;;;1.91;70.85
72409;BME280;60402;48.082;11.628;2023-03-11T00:58:50;94067.28;;;1.83;70.58
72409;BME280;60402;48.082;11.628;2023-03-11T01:01:18;94085.59;;;1.84;70.61
72409;BME280;60402;48.082;11.628;2023-03-11T01:03:44;94068.38;;;1.66;70.67
72409;BME280;60402;48.082;11.628;2023-03-11T01:06:10;94088.38;;;1.84;71.43
72409;BME280;60402;48.082;11.628;2023-03-11T01:08:35;94102.72;;;1.83;71.14
72409;BME280;60402;48.082;11.628;2023-03-11T01:11:02;94088.69;;;1.90;71.47
72409;BME280;60402;48.082;11.628;2023-03-11T01:13:28;94078.31;;;1.67;71.55
72409;BME280;60402;48.082;11.628;2023-03-11T01:15:55;94055.69;;;1.65;71.47
72409;BME280;60402;48.082;11.628;2023-03-11T01:18:20;94066.88;;;1.85;70.46
72409;BME280;60402;48.082;11.628;2023-03-11T01:20:46;94091.88;;;1.88;71.35
72409;BME280;60402;48.082;11.628;2023-03-11T01:23:14;94082.47;;;1.78;71.33
72409;BME280;60402;48.082;11.628;2023-03-11T01:25:40;94093.88;;;1.88;71.99
72409;BME280;60402;48.082;11.628;2023-03-11T01:28:06;94088.00;;;1.82;71.60
72409;BME280;60402;48.082;11.628;2023-03-11T01:30:33;94076.56;;;1.76;72.17
72409;BME280;60402;48.082;11.628;2023-03-11T01:32:59;94097.94;;;1.83;71.96
72409;BME280;60402;48.082;11.628;2023-03-11T01:35:26;94095.53;;;1.85;72.37
72409;BME280;60402;48.082;11.628;2023-03-11T01:37:52;94113.13;;;1.78;72.46
72409;BME280;60402;48.082;11.628;2023-03-11T01:40:38;94111.47;;;1.85;72.21
72409;BME280;60402;48.082;11.628;2023-03-11T01:43:06;94091.78;;;1.68;72.60
72409;BME280;60402;48.082;11.628;2023-03-11T01:48:15;94099.75;;;1.70;72.46
72409;BME280;60402;48.082;11.628;2023-03-11T01:50:46;94112.81;;;1.73;73.17
72409;BME280;60402;48.082;11.628;2023-03-11T01:53:14;94095.84;;;1.64;73.51
72409;BME280;60402;48.082;11.628;2023-03-11T01:55:40;94108.63;;;1.61;72.70
72409;BME280;60402;48.082;11.628;2023-03-11T01:58:10;94108.94;;;1.67;72.97
72409;BME280;60402;48.082;11.628;2023-03-11T02:00:38;94120.50;;;1.65;72.97
72409;BME280;60402;48.082;11.628;2023-03-11T02:03:14;94128.38;;;1.70;72.85
72409;BME280;60402;48.082;11.628;2023-03-11T02:05:41;94096.13;;;1.46;73.59
72409;BME280;60402;48.082;11.628;2023-03-11T02:08:07;94133.38;;;1.56;74.15
72409;BME280;60402;48.082;11.628;2023-03-11T02:10:32;94078.81;;;1.31;74.27
72409;BME280;60402;48.082;11.628;2023-03-11T02:12:58;94108.56;;;1.38;74.58
72409;BME280;60402;48.082;11.628;2023-03-11T02:15:26;94110.88;;;1.43;72.77
72409;BME280;60402;48.082;11.628;2023-03-11T02:17:51;94103.19;;;1.50;72.82
72409;BME280;60402;48.082;11.628;2023-03-11T02:20:51;94120.84;;;1.40;73.16
72409;BME280;60402;48.082;11.628;2023-03-11T02:23:20;94097.16;;;1.28;73.26
72409;BME280;60402;48.082;11.628;2023-03-11T02:28:34;94116.94;;;1.34;73.83
72409;BME280;60402;48.082;11.628;2023-03-11T02:31:01;94100.22;;;1.07;74.56
72409;BME280;60402;48.082;11.628;2023-03-11T02:33:30;94092.66;;;1.08;74.72
72409;BME280;60402;48.082;11.628;2023-03-11T02:35:56;94119.34;;;1.01;75.40
72409;BME280;60402;48.082;11.628;2023-03-11T02:38:22;94131.28;;;1.02;74.80
72409;BME280;60402;48.082;11.628;2023-03-11T02:40:50;94138.50;;;1.26;73.77
72409;BME280;60402;48.082;11.628;2023-03-11T02:43:17;94138.97;;;1.21;73.56
72409;BME280;60402;48.082;11.628;2023-03-11T02:45:44;94137.50;;;1.13;75.32
72409;BME280;60402;48.082;11.628;2023-03-11T02:48:11;94122.44;;;1.11;74.46
72409;BME280;60402;48.082;11.628;2023-03-11T02:50:36;94134.97;;;0.92;75.29
72409;BME280;60402;48.082;11.628;2023-03-11T02:53:04;94107.91;;;0.96;75.46
72409;BME280;60402;48.082;11.628;2023-03-11T02:55:31;94136.75;;;1.09;74.93
72409;BME280;60402;48.082;11.628;2023-03-11T02:57:57;94140.78;;;1.05;75.27
72409;BME280;60402;48.082;11.628;2023-03-11T03:00:22;94139.72;;;0.95;73.69
72409;BME280;60402;48.082;11.628;2023-03-11T03:02:47;94140.38;;;1.06;73.06
72409;BME280;60402;48.082;11.628;2023-03-11T03:05:17;94137.94;;;1.08;73.83
72409;BME280;60402;48.082;11.628;2023-03-11T03:07:45;94131.78;;;0.93;74.01
72409;BME280;60402;48.082;11.628;2023-03-11T03:10:12;94148.00;;;0.98;73.86
72409;BME280;60402;48.082;11.628;2023-03-11T03:12:38;94154.63;;;1.08;72.08
72409;BME280;60402;48.082;11.628;2023-03-11T03:15:03;94123.13;;;0.84;72.71
72409;BME280;60402;48.082;11.628;2023-03-11T03:17:29;94139.03;;;0.84;73.38
72409;BME280;60402;48.082;11.628;2023-03-11T03:19:54;94161.69;;;0.82;73.05
72409;BME280;60402;48.082;11.628;2023-03-11T03:22:19;94151.78;;;0.81;72.87
72409;BME280;60402;48.082;11.628;2023-03-11T03:24:44;94135.59;;;0.72;72.30
72409;BME280;60402;48.082;11.628;2023-03-11T03:27:10;94162.31;;;0.97;71.88
72409;BME280;60402;48.082;11.628;2023-03-11T03:29:35;94171.66;;;0.80;71.29
72409;BME280;60402;48.082;11.628;2023-03-11T03:32:00;94170.09;;;0.75;71.09
72409;BME280;60402;48.082;11.628;2023-03-11T03:34:26;94151.53;;;0.68;69.83
72409;BME280;60402;48.082;11.628;2023-03-11T03:36:51;94179.63;;;0.77;70.49
72409;BME280;60402;48.082;11.628;2023-03-11T03:39:16;94159.44;;;0.70;71.68
72409;BME280;60402;48.082;11.628;2023-03-11T03:41:43;94160.53;;;0.80;70.36
72409;BME280;60402;48.082;11.628;2023-03-11T03:44:09;94149.63;;;0.62;70.63
72409;BME280;60402;48.082;11.628;2023-03-11T03:46:34;94173.75;;;0.68;70.65
72409;BME280;60402;48.082;11.628;2023-03-11T03:48:59;94194.81;;;0.66;70.59
72409;BME280;60402;48.082;11.628;2023-03-11T03:51:25;94183.38;;;0.60;71.20
72409;BME280;60402;48.082;11.628;2023-03-11T03:53:50;94183.75;;;0.62;71.81
72409;BME280;60402;48.082;11.628;2023-03-11T03:56:16;94177.41;;;0.62;71.72
72409;BME280;60402;48.082;11.628;2023-03-11T03:58:42;94163.56;;;0.55;70.66
72409;BME280;60402;48.082;11.628;2023-03-11T04:01:08;94181.88;;;0.52;72.41
72409;BME280;60402;48.082;11.628;2023-03-11T04:03:34;94150.72;;;0.30;72.28
72409;BME280;60402;48.082;11.628;2023-03-11T04:06:08;94182.25;;;0.54;71.82
72409;BME280;60402;48.082;11.628;2023-03-11T04:08:34;94173.59;;;0.45;71.28
72409;BME280;60402;48.082;11.628;2023-03-11T04:10:59;94158.66;;;0.28;71.82
72409;BME280;60402;48.082;11.628;2023-03-11T04:13:24;94184.78;;;0.38;71.90
72409;BME280;60402;48.082;11.628;2023-03-11T04:15:50;94195.03;;;0.44;72.07
72409;BME280;60402;48.082;11.628;2023-03-11T04:18:15;94189.09;;;0.42;72.55
72409;BME280;60402;48.082;11.628;2023-03-11T04:20:40;94191.84;;;0.46;72.10
72409;BME280;60402;48.082;11.628;2023-03-11T04:23:05;94157.97;;;0.17;72.60
72409;BME280;60402;48.082;11.628;2023-03-11T04:25:31;94180.00;;;0.38;72.58
72409;BME280;60402;48.082;11.628;2023-03-11T04:27:58;94179.25;;;0.34;72.51
72409;BME280;60402;48.082;11.628;2023-03-11T04:30:23;94139.75;;;0.12;72.61
72409;BME280;60402;48.082;11.628;2023-03-11T04:32:49;94167.41;;;0.27;73.25
72409;BME280;60402;48.082;11.628;2023-03-11T04:35:14;94172.16;;;0.30;73.06
72409;BME280;60402;48.082;11.628;2023-03-11T04:37:40;94179.31;;;0.23;73.48
72409;BME280;60402;48.082;11.628;2023-03-11T04:40:05;94191.56;;;0.33;73.60
72409;BME280;60402;48.082;11.628;2023-03-11T04:42:31;94196.00;;;0.23;74.16
72409;BME280;60402;48.082;11.628;2023-03-11T04:44:56;94193.28;;;0.20;73.44
72409;BME280;60402;48.082;11.628;2023-03-11T04:47:22;94178.28;;;0.10;74.15
72409;BME280;60402;48.082;11.628;2023-03-11T04:49:47;94179.44;;;0.09;74.44
72409;BME280;60402;48.082;11.628;2023-03-11T04:52:12;94166.06;;;-0.03;73.91
72409;BME280;60402;48.082;11.628;2023-03-11T04:54:38;94171.47;;;0.15;73.78
72409;BME280;60402;48.082;11.628;2023-03-11T04:57:03;94175.84;;;0.16;73.73
72409;BME280;60402;48.082;11.628;2023-03-11T04:59:28;94175.84;;;0.16;73.54
72409;BME280;60402;48.082;11.628;2023-03-11T05:01:54;94213.09;;;0.18;74.64
72409;BME280;60402;48.082;11.628;2023-03-11T05:04:19;94195.31;;;0.09;75.05
72409;BME280;60402;48.082;11.628;2023-03-11T05:06:44;94202.84;;;0.12;75.50
72409;BME280;60402;48.082;11.628;2023-03-11T05:09:10;94202.06;;;0.11;75.34
72409;BME280;60402;48.082;11.628;2023-03-11T05:11:35;94220.63;;;0.21;75.56
72409;BME280;60402;48.082;11.628;2023-03-11T05:14:00;94217.50;;;0.16;75.45
72409;BME280;60402;48.082;11.628;2023-03-11T05:16:26;94212.19;;;0.32;74.52
72409;BME280;60402;48.082;11.628;2023-03-11T05:18:51;94227.63;;;0.40;74.79
72409;BME280;60402;48.082;11.628;2023-03-11T05:21:16;94217.03;;;0.24;75.24
72409;BME280;60402;48.082;11.628;2023-03-11T05:23:42;94218.97;;;0.31;75.47
72409;BME280;60402;48.082;11.628;2023-03-11T05:26:09;94222.19;;;0.22;76.17
72409;BME280;60402;48.082;11.628;2023-03-11T05:28:34;94222.84;;;0.41;75.84
72409;BME280;60402;48.082;11.628;2023-03-11T05:31:00;94234.25;;;0.57;74.65
72409;BME280;60402;48.082;11.628;2023-03-11T05:33:25;94233.47;;;0.57;74.87
72409;BME280;60402;48.082;11.628;2023-03-11T05:35:50;94239.41;;;0.55;75.70
72409;BME280;60402;48.082;11.628;2023-03-11T05:38:16;94244.19;;;0.55;75.38
72409;BME280;60402;48.082;11.628;2023-03-11T05:40:41;94237.81;;;0.58;75.24
72409;BME280;60402;48.082;11.628;2023-03-11T05:43:07;94247.34;;;0.57;75.35
72409;BME280;60402;48.082;11.628;2023-03-11T05:45:32;94230.34;;;0.47;75.45
72409;BME280;60402;48.082;11.628;2023-03-11T05:47:58;94236.28;;;0.49;74.99
72409;BME280;60402;48.082;11.628;2023-03-11T05:50:23;94253.66;;;0.61;74.82
72409;BME280;60402;48.082;11.628;2023-03-11T05:52:49;94250.19;;;0.49;75.46
72409;BME280;60402;48.082;11.628;2023-03-11T05:55:14;94239.09;;;0.46;75.45
72409;BME280;60402;48.082;11.628;2023-03-11T05:57:39;94228.44;;;0.37;75.54
72409;BME280;60402;48.082;11.628;2023-03-11T06:00:06;94235.94;;;0.44;75.65
72409;BME280;60402;48.082;11.628;2023-03-11T06:02:37;94247.38;;;0.53;74.91
72409;BME280;60402;48.082;11.628;2023-03-11T06:05:03;94228.31;;;0.51;75.07
72409;BME280;60402;48.082;11.628;2023-03-11T06:07:28;94251.28;;;0.59;75.05
72409;BME280;60402;48.082;11.628;2023-03-11T06:09:54;94256.81;;;0.63;74.53
72409;BME280;60402;48.082;11.628;2023-03-11T06:12:19;94228.31;;;0.51;73.90
72409;BME280;60402;48.082;11.628;2023-03-11T06:14:45;94261.97;;;0.64;74.40
72409;BME280;60402;48.082;11.628;2023-03-11T06:17:10;94266.75;;;0.64;73.90
72409;BME280;60402;48.082;11.628;2023-03-11T06:19:35;94267.50;;;0.68;72.31
72409;BME280;60402;48.082;11.628;2023-03-11T06:22:01;94239.09;;;0.46;67.79
72409;BME280;60402;48.082;11.628;2023-03-11T06:24:26;94284.22;;;0.64;68.00
72409;BME280;60402;48.082;11.628;2023-03-11T06:26:52;94281.53;;;0.50;66.45
72409;BME280;60402;48.082;11.628;2023-03-11T06:29:17;94283.88;;;0.59;65.98
72409;BME280;60402;48.082;11.628;2023-03-11T06:31:43;94268.88;;;0.45;65.37
72409;BME280;60402;48.082;11.628;2023-03-11T06:34:10;94297.41;;;0.53;65.30
72409;BME280;60402;48.082;11.628;2023-03-11T06:36:35;94281.97;;;0.48;65.37
72409;BME280;60402;48.082;11.628;2023-03-11T06:39:01;94282.69;;;0.56;64.64
72409;BME280;60402;48.082;11.628;2023-03-11T06:41:27;94301.72;;;0.61;64.74
72409;BME280;60402;48.082;11.628;2023-03-11T06:43:53;94308.03;;;0.65;65.72
72409;BME280;60402;48.082;11.628;2023-03-11T06:46:20;94309.19;;;0.71;65.00
72409;BME280;60402;48.082;11.628;2023-03-11T06:48:46;94294.50;;;0.67;63.92
72409;BME280;60402;48.082;11.628;2023-03-11T06:51:15;94291.31;;;0.69;63.75
72409;BME280;60402;48.082;11.628;2023-03-11T06:53:41;94298.38;;;0.81;63.58
72409;BME280;60402;48.082;11.628;2023-03-11T06:56:11;94315.38;;;0.90;64.15
72409;BME280;60402;48.082;11.628;2023-03-11T06:58:37;94320.78;;;1.08;63.00
72409;BME280;60402;48.082;11.628;2023-03-11T07:01:06;94319.47;;;1.19;65.50
72409;BME280;60402;48.082;11.628;2023-03-11T07:03:32;94304.78;;;1.19;63.42
72409;BME280;60402;48.082;11.628;2023-03-11T07:05:58;94308.16;;;1.37;62.88
72409;BME280;60402;48.082;11.628;2023-03-11T07:08:24;94337.69;;;1.65;62.24
72409;BME280;60402;48.082;11.628;2023-03-11T07:11:20;94340.81;;;1.71;62.15
72409;BME280;60402;48.082;11.628;2023-03-11T07:13:46;94340.25;;;1.83;61.69
72409;BME280;60402;48.082;11.628;2023-03-11T07:16:12;94353.88;;;1.74;60.95
72409;BME280;60402;48.082;11.628;2023-03-11T07:18:40;94346.84;;;1.66;60.85
72409;BME280;60402;48.082;11.628;2023-03-11T07:21:07;94360.63;;;2.11;60.09
72409;BME280;60402;48.082;11.628;2023-03-11T07:23:33;94362.38;;;2.32;59.14
72409;BME280;60402;48.082;11.628;2023-03-11T07:25:59;94335.91;;;2.43;59.05
72409;BME280;60402;48.082;11.628;2023-03-11T07:28:25;94369.63;;;2.52;58.98
72409;BME280;60402;48.082;11.628;2023-03-11T07:30:51;94378.59;;;2.67;58.76
72409;BME280;60402;48.082;11.628;2023-03-11T07:33:17;94362.72;;;2.64;58.75
72409;BME280;60402;48.082;11.628;2023-03-11T07:35:43;94359.22;;;4.37;56.46
72409;BME280;60402;48.082;11.628;2023-03-11T07:38:08;94363.31;;;5.70;51.39
72409;BME280;60402;48.082;11.628;2023-03-11T07:40:34;94380.88;;;5.87;50.36
72409;BME280;60402;48.082;11.628;2023-03-11T07:42:59;94383.63;;;8.36;46.19
72409;BME280;60402;48.082;11.628;2023-03-11T07:45:25;94374.41;;;9.91;41.44
72409;BME280;60402;48.082;11.628;2023-03-11T07:47:50;94391.94;;;12.33;36.48
72409;BME280;60402;48.082;11.628;2023-03-11T07:50:16;94393.22;;;13.68;33.99
72409;BME280;60402;48.082;11.628;2023-03-11T07:52:42;94407.81;;;12.78;33.72
72409;BME280;60402;48.082;11.628;2023-03-11T07:55:07;94405.38;;;12.23;35.33
72409;BME280;60402;48.082;11.628;2023-03-11T07:57:33;94408.63;;;12.93;33.92
72409;BME280;60402;48.082;11.628;2023-03-11T07:59:58;94401.28;;;11.58;35.12
72409;BME280;60402;48.082;11.628;2023-03-11T08:02:23;94404.13;;;12.87;34.43
72409;BME280;60402;48.082;11.628;2023-03-11T08:04:49;94405.50;;;12.52;33.96
72409;BME280;60402;48.082;11.628;2023-03-11T08:07:14;94397.97;;;12.01;33.92
72409;BME280;60402;48.082;11.628;2023-03-11T08:09:39;94397.84;;;12.68;32.22
72409;BME280;60402;48.082;11.628;2023-03-11T08:12:05;94383.91;;;11.41;34.62
72409;BME280;60402;48.082;11.628;2023-03-11T08:14:30;94416.59;;;11.84;34.82
72409;BME280;60402;48.082;11.628;2023-03-11T08:16:55;94414.69;;;12.86;32.81
72409;BME280;60402;48.082;11.628;2023-03-11T08:19:21;94415.03;;;14.62;29.88
72409;BME280;60402;48.082;11.628;2023-03-11T08:21:46;94423.34;;;15.32;29.81
72409;BME280;60402;48.082;11.628;2023-03-11T08:24:12;94421.34;;;15.39;28.92
72409;BME280;60402;48.082;11.628;2023-03-11T08:26:38;94435.19;;;13.94;30.12
72409;BME280;60402;48.082;11.628;2023-03-11T08:29:04;94436.47;;;12.80;32.43
72409;BME280;60402;48.082;11.628;2023-03-11T08:31:31;94434.25;;;10.91;34.33
72409;BME280;60402;48.082;11.628;2023-03-11T08:34:03;94415.84;;;10.22;36.22
72409;BME280;60402;48.082;11.628;2023-03-11T08:36:30;94445.34;;;9.40;37.60
72409;BME280;60402;48.082;11.628;2023-03-11T08:38:56;94451.63;;;9.13;40.36
72409;BME280;60402;48.082;11.628;2023-03-11T08:41:21;94446.06;;;8.57;39.77
72409;BME280;60402;48.082;11.628;2023-03-11T08:43:47;94458.19;;;9.10;40.23
72409;BME280;60402;48.082;11.628;2023-03-11T08:46:16;94444.03;;;12.35;34.51
72409;BME280;60402;48.082;11.628;2023-03-11T08:48:44;94435.03;;;13.38;32.19
72409;BME280;60402;48.082;11.628;2023-03-11T08:51:11;94444.88;;;14.52;30.94
72409;BME280;60402;48.082;11.628;2023-03-11T08:53:37;94451.34;;;14.38;30.77
72409;BME280;60402;48.082;11.628;2023-03-11T08:56:02;94440.53;;;11.83;33.27
72409;BME280;60402;48.082;11.628;2023-03-11T08:58:28;94444.25;;;12.46;33.77
72409;BME280;60402;48.082;11.628;2023-03-11T09:00:54;94451.44;;;10.19;35.55
72409;BME280;60402;48.082;11.628;2023-03-11T09:03:19;94441.47;;;10.37;36.09
72409;BME280;60402;48.082;11.628;2023-03-11T09:05:44;94439.91;;;11.09;35.04
72409;BME280;60402;48.082;11.628;2023-03-11T09:08:10;94437.19;;;12.42;34.12
72409;BME280;60402;48.082;11.628;2023-03-11T09:10:35;94449.75;;;14.16;30.62
72409;BME280;60402;48.082;11.628;2023-03-11T09:13:00;94432.59;;;13.46;30.49
72409;BME280;60402;48.082;11.628;2023-03-11T09:15:26;94443.81;;;13.40;31.07
72409;BME280;60402;48.082;11.628;2023-03-11T09:17:51;94439.03;;;11.45;33.13
72409;BME280;60402;48.082;11.628;2023-03-11T09:20:17;94448.47;;;12.75;32.79
72409;BME280;60402;48.082;11.628;2023-03-11T09:22:42;94471.34;;;10.84;34.39
72409;BME280;60402;48.082;11.628;2023-03-11T09:25:09;94471.69;;;10.18;35.39
72409;BME280;60402;48.082;11.628;2023-03-11T09:27:36;94463.22;;;9.37;36.23
72409;BME280;60402;48.082;11.628;2023-03-11T09:30:01;94453.28;;;9.02;36.81
72409;BME280;60402;48.082;11.628;2023-03-11T09:32:26;94459.88;;;10.60;35.68
72409;BME280;60402;48.082;11.628;2023-03-11T09:34:52;94451.16;;;11.46;34.67
72409;BME280;60402;48.082;11.628;2023-03-11T09:37:17;94440.63;;;12.94;31.29
72409;BME280;60402;48.082;11.628;2023-03-11T09:39:42;94453.84;;;13.50;31.01
72409;BME280;60402;48.082;11.628;2023-03-11T09:45:28;94464.13;;;14.63;29.01
72409;BME280;60402;48.082;11.628;2023-03-11T09:47:51;94469.78;;;13.63;30.51
72409;BME280;60402;48.082;11.628;2023-03-11T09:55:52;94469.28;;;13.94;30.66
72409;BME280;60402;48.082;11.628;2023-03-11T10:01:20;94465.59;;;13.19;31.13
72409;BME280;60402;48.082;11.628;2023-03-11T10:03:47;94476.75;;;11.51;33.21
72409;BME280;60402;48.082;11.628;2023-03-11T10:06:18;94478.81;;;10.32;35.26
72409;BME280;60402;48.082;11.628;2023-03-11T10:08:50;94468.25;;;9.83;36.17
72409;BME280;60402;48.082;11.628;2023-03-11T10:14:01;94479.63;;;8.86;37.39
72409;BME280;60402;48.082;11.628;2023-03-11T10:16:36;94486.66;;;8.21;38.81
72409;BME280;60402;48.082;11.628;2023-03-11T10:19:16;94478.63;;;7.72;40.10
72409;BME280;60402;48.082;11.628;2023-03-11T10:21:55;94497.13;;;7.18;41.98
72409;BME280;60402;48.082;11.628;2023-03-11T10:24:43;94500.25;;;7.08;41.02
72409;BME280;60402;48.082;11.628;2023-03-11T10:27:17;94477.78;;;6.66;42.77
72409;BME280;60402;48.082;11.628;2023-03-11T10:35:36;94499.69;;;6.42;44.47
72409;BME280;60402;48.082;11.628;2023-03-11T10:38:13;94491.47;;;6.19;41.40
72409;BME280;60402;48.082;11.628;2023-03-11T10:40:42;94474.03;;;6.11;43.61
72409;BME280;60402;48.082;11.628;2023-03-11T10:43:17;94503.13;;;5.84;43.50
72409;BME280;60402;48.082;11.628;2023-03-11T10:45:43;94502.28;;;6.04;43.64
72409;BME280;60402;48.082;11.628;2023-03-11T10:48:14;94494.13;;;5.93;43.37
72409;BME280;60402;48.082;11.628;2023-03-11T10:50:49;94489.25;;;5.77;42.11
72409;BME280;60402;48.082;11.628;2023-03-11T10:53:18;94506.88;;;5.61;43.33
72409;BME280;60402;48.082;11.628;2023-03-11T10:55:54;94495.91;;;5.67;45.45
72409;BME280;60402;48.082;11.628;2023-03-11T10:58:26;94493.81;;;5.71;43.26
72409;BME280;60402;48.082;11.628;2023-03-11T11:03:29;94499.25;;;5.78;44.01
72409;BME280;60402;48.082;11.628;2023-03-11T11:06:00;94486.53;;;5.74;42.62
72409;BME280;60402;48.082;11.628;2023-03-11T11:08:26;94497.56;;;5.64;41.69
72409;BME280;60402;48.082;11.628;2023-03-11T11:10:59;94497.25;;;5.79;42.94
72409;BME280;60402;48.082;11.628;2023-03-11T11:13:29;94498.13;;;5.92;42.06
72409;BME280;60402;48.082;11.628;2023-03-11T11:16:02;94497.25;;;5.79;43.11
72409;BME280;60402;48.082;11.628;2023-03-11T11:21:08;94471.50;;;6.00;41.48
72409;BME280;60402;48.082;11.628;2023-03-11T11:23:40;94485.41;;;6.20;41.74
72409;BME280;60402;48.082;11.628;2023-03-11T11:26:21;94494.59;;;6.21;42.54
72409;BME280;60402;48.082;11.628;2023-03-11T11:29:13;94486.91;;;6.25;43.82
72409;BME280;60402;48.082;11.628;2023-03-11T11:31:42;94478.63;;;6.34;43.26
72409;BME280;60402;48.082;11.628;2023-03-11T11:34:28;94491.88;;;6.50;45.18
72409;BME280;60402;48.082;11.628;2023-03-11T11:36:56;94484.88;;;6.25;43.32
72409;BME280;60402;48.082;11.628;2023-03-11T11:39:28;94500.38;;;6.30;44.28
72409;BME280;60402;48.082;11.628;2023-03-11T11:41:55;94494.78;;;6.30;43.62
72409;BME280;60402;48.082;11.628;2023-03-11T11:44:21;94490.41;;;6.29;42.20
72409;BME280;60402;48.082;11.628;2023-03-11T11:46:57;94458.50;;;6.06;45.01
72409;BME280;60402;48.082;11.628;2023-03-11T11:49:28;94480.28;;;6.02;46.80
72409;BME280;60402;48.082;11.628;2023-03-11T11:51:59;94457.22;;;5.95;45.29
72409;BME280;60402;48.082;11.628;2023-03-11T11:54:36;94487.25;;;5.78;43.94
72409;BME280;60402;48.082;11.628;2023-03-11T11:57:14;94477.19;;;5.97;44.49
72409;BME280;60402;48.082;11.628;2023-03-11T11:59:40;94454.06;;;5.93;46.02
72409;BME280;60402;48.082;11.628;2023-03-11T12:07:32;94465.28;;;5.93;42.98
72409;BME280;60402;48.082;11.628;2023-03-11T12:12:46;94479.97;;;5.64;43.94
72409;BME280;60402;48.082;11.628;2023-03-11T12:15:19;94465.53;;;5.66;45.15
72409;BME280;60402;48.082;11.628;2023-03-11T12:17:46;94449.78;;;5.55;44.12
72409;BME280;60402;48.082;11.628;2023-03-11T12:20:14;94460.88;;;5.75;44.33
72409;BME280;60402;48.082;11.628;2023-03-11T12:23:18;94477.59;;;5.62;44.29
72409;BME280;60402;48.082;11.628;2023-03-11T12:25:55;94458.50;;;5.57;44.70
72409;BME280;60402;48.082;11.628;2023-03-11T12:28:42;94468.91;;;5.41;44.46
72409;BME280;60402;48.082;11.628;2023-03-11T12:31:11;94465.88;;;5.51;45.03
72409;BME280;60402;48.082;11.628;2023-03-11T12:34:13;94458.50;;;5.41;45.46
72409;BME280;60402;48.082;11.628;2023-03-11T12:36:36;94438.16;;;5.21;44.71
72409;BME280;60402;48.082;11.628;2023-03-11T12:39:21;94455.59;;;5.45;45.21
72409;BME280;60402;48.082;11.628;2023-03-11T12:41:48;94456.31;;;5.49;44.84
72409;BME280;60402;48.082;11.628;2023-03-11T12:44:33;94449.75;;;5.39;45.17
72409;BME280;60402;48.082;11.628;2023-03-11T12:47:02;94437.75;;;5.38;43.68
72409;BME280;60402;48.082;11.628;2023-03-11T12:49:29;94463.41;;;5.53;44.57
72409;BME280;60402;48.082;11.628;2023-03-11T12:54:45;94455.88;;;5.50;44.74
72409;BME280;60402;48.082;11.628;2023-03-11T13:05:20;94444.66;;;5.34;46.64
72409;BME280;60402;48.082;11.628;2023-03-11T13:07:50;94438.34;;;5.30;45.04
72409;BME280;60402;48.082;11.628;2023-03-11T13:12:58;94424.78;;;5.28;45.85
72409;BME280;60402;48.082;11.628;2023-03-11T13:15:29;94431.81;;;5.53;45.80
72409;BME280;60402;48.082;11.628;2023-03-11T13:20:56;94419.44;;;5.34;45.69
72409;BME280;60402;48.082;11.628;2023-03-11T13:23:32;94448.97;;;5.55;45.48
72409;BME280;60402;48.082;11.628;2023-03-11T13:26:28;94441.72;;;5.41;46.06
72409;BME280;60402;48.082;11.628;2023-03-11T13:29:10;94454.13;;;5.56;44.82
72409;BME280;60402;48.082;11.628;2023-03-11T13:32:11;94448.34;;;5.47;45.08
72409;BME280;60402;48.082;11.628;2023-03-11T13:43:00;94457.50;;;5.15;44.33
72409;BME280;60402;48.082;11.628;2023-03-11T13:45:30;94454.56;;;5.22;45.26
72409;BME280;60402;48.082;11.628;2023-03-11T13:48:02;94454.97;;;5.21;44.70
72409;BME280;60402;48.082;11.628;2023-03-11T13:50:34;94459.38;;;5.38;45.09
72409;BME280;60402;48.082;11.628;2023-03-11T13:53:06;94451.63;;;5.26;45.39
72409;BME280;60402;48.082;11.628;2023-03-11T13:55:37;94458.84;;;5.43;44.92
72409;BME280;60402;48.082;11.628;2023-03-11T13:58:19;94446.94;;;5.23;46.13
72409;BME280;60402;48.082;11.628;2023-03-11T14:00:49;94476.72;;;5.49;45.27
72409;BME280;60402;48.082;11.628;2023-03-11T14:03:16;94475.03;;;5.35;44.94
72409;BME280;60402;48.082;11.628;2023-03-11T14:05:49;94437.31;;;5.40;44.26